createdAt,value
2019-05-19T00:00:52.034Z,67.26
2019-05-19T00:03:21.057Z,67.25
2019-05-19T00:05:49.789Z,67.57
2019-05-19T00:08:18.459Z,67.61
2019-05-19T00:10:47.176Z,67.56
2019-05-19T00:13:16.161Z,67.33
2019-05-19T00:15:45.235Z,67.46
2019-05-19T00:18:13.930Z,67.46
2019-05-19T00:20:42.619Z,67.79
2019-05-19T00:23:11.309Z,67.67
2019-05-19T00:25:40.004Z,67.61
2019-05-19T00:28:08.765Z,67.58
2019-05-19T00:30:37.512Z,67.66
2019-05-19T00:33:06.429Z,68.36
2019-05-19T00:35:36.167Z,67.85
2019-05-19T00:38:05.044Z,67.64
2019-05-19T00:40:33.978Z,67.81
2019-05-19T00:43:04.477Z,67.71
2019-05-19T00:45:33.377Z,68.10
2019-05-19T00:48:02.462Z,68.14
2019-05-19T00:50:31.228Z,68.40
2019-05-19T00:53:00.228Z,68.38
2019-05-19T00:55:29.955Z,68.54
2019-05-19T00:57:59.355Z,68.72
2019-05-19T01:00:28.213Z,69.63
2019-05-19T01:02:56.900Z,69.61
2019-05-19T01:05:25.577Z,69.56
2019-05-19T01:07:54.552Z,69.47
2019-05-19T01:10:23.416Z,69.90
2019-05-19T01:12:52.088Z,69.87
2019-05-19T01:15:21.686Z,69.93
2019-05-19T01:17:50.362Z,70.01
2019-05-19T01:20:19.559Z,70.01
2019-05-19T01:22:48.506Z,69.82
2019-05-19T01:25:17.757Z,69.88
2019-05-19T01:27:46.416Z,69.55
2019-05-19T01:30:15.350Z,69.48
2019-05-19T01:32:44.489Z,69.85
2019-05-19T01:35:13.366Z,69.71
2019-05-19T01:37:42.060Z,69.73
2019-05-19T01:40:10.902Z,69.66
2019-05-19T01:42:39.585Z,69.97
2019-05-19T01:45:09.879Z,69.88
2019-05-19T01:47:38.561Z,69.55
2019-05-19T01:50:17.686Z,69.46
2019-05-19T01:52:39.770Z,69.72
2019-05-19T01:55:08.837Z,70.25
2019-05-19T01:57:37.680Z,70.33
2019-05-19T02:00:06.620Z,70.50
2019-05-19T02:02:35.640Z,70.21
2019-05-19T02:05:04.396Z,70.08
2019-05-19T02:07:33.364Z,70.11
2019-05-19T02:10:02.417Z,70.29
2019-05-19T02:12:31.357Z,70.55
2019-05-19T02:15:00.575Z,70.40
2019-05-19T02:17:29.267Z,70.49
2019-05-19T02:19:58.234Z,70.62
2019-05-19T02:22:26.923Z,70.87
2019-05-19T02:24:56.192Z,70.72
2019-05-19T02:27:25.378Z,70.70
2019-05-19T02:29:54.069Z,70.64
2019-05-19T02:32:22.761Z,70.41
2019-05-19T02:34:51.757Z,70.46
2019-05-19T02:37:20.688Z,70.51
2019-05-19T02:39:49.616Z,70.62
2019-05-19T02:42:20.397Z,70.70
2019-05-19T02:44:50.550Z,70.79
2019-05-19T02:47:20.964Z,71.03
2019-05-19T02:49:51.405Z,71.12
2019-05-19T02:52:21.292Z,70.86
2019-05-19T02:54:51.385Z,70.68
2019-05-19T02:57:20.960Z,70.74
2019-05-19T02:59:50.433Z,70.95
2019-05-19T03:02:19.146Z,70.98
2019-05-19T03:04:48.100Z,70.84
2019-05-19T03:07:17.138Z,70.97
2019-05-19T03:09:46.077Z,70.93
2019-05-19T03:12:14.780Z,71.03
2019-05-19T03:14:43.492Z,71.12
2019-05-19T03:17:12.207Z,71.27
2019-05-19T03:19:41.137Z,71.30
2019-05-19T03:22:10.088Z,71.28
2019-05-19T03:24:38.746Z,71.33
2019-05-19T03:27:07.472Z,71.45
2019-05-19T03:29:40.332Z,71.55
2019-05-19T03:32:23.431Z,71.67
2019-05-19T03:34:52.376Z,71.74
2019-05-19T03:37:21.361Z,72.00
2019-05-19T03:39:50.025Z,72.29
2019-05-19T03:42:19.209Z,72.35
2019-05-19T03:44:47.875Z,72.32
2019-05-19T03:47:16.579Z,72.41
2019-05-19T03:49:45.823Z,72.58
2019-05-19T03:52:14.773Z,72.57
2019-05-19T03:54:43.751Z,72.24
2019-05-19T03:57:12.683Z,72.10
2019-05-19T03:59:41.372Z,72.37
2019-05-19T04:02:10.326Z,72.75
2019-05-19T04:04:39.250Z,72.87
2019-05-19T04:07:08.028Z,72.72
2019-05-19T04:09:36.708Z,72.92
2019-05-19T04:12:05.393Z,72.83
2019-05-19T04:14:34.394Z,72.72
2019-05-19T04:17:03.304Z,72.97
2019-05-19T04:19:32.328Z,73.49
2019-05-19T04:22:01.493Z,73.54
2019-05-19T04:24:30.197Z,73.24
2019-05-19T04:26:59.120Z,73.14
2019-05-19T04:29:27.818Z,72.88
2019-05-19T04:31:56.491Z,72.70
2019-05-19T04:34:25.433Z,72.75
2019-05-19T04:36:54.258Z,72.56
2019-05-19T04:39:22.945Z,72.49
2019-05-19T04:41:51.627Z,72.19
2019-05-19T04:44:20.319Z,72.95
2019-05-19T04:46:49.230Z,73.33
2019-05-19T04:49:18.432Z,73.21
2019-05-19T04:52:05.216Z,73.14
2019-05-19T04:54:18.888Z,72.85
2019-05-19T04:56:47.813Z,72.84
2019-05-19T04:59:18.747Z,73.47
2019-05-19T05:01:47.434Z,73.87
2019-05-19T05:04:16.197Z,73.66
2019-05-19T05:06:45.111Z,73.63
2019-05-19T05:09:14.279Z,73.55
2019-05-19T05:11:43.236Z,72.87
2019-05-19T05:14:11.912Z,73.51
2019-05-19T05:16:40.886Z,73.34
2019-05-19T05:19:09.605Z,73.19
2019-05-19T05:21:41.806Z,71.92
2019-05-19T05:24:10.519Z,72.03
2019-05-19T05:26:41.179Z,72.30
2019-05-19T05:29:10.132Z,72.56
2019-05-19T05:31:39.073Z,72.42
2019-05-19T05:34:07.830Z,72.85
2019-05-19T05:36:37.204Z,73.35
2019-05-19T05:39:06.877Z,73.31
2019-05-19T05:41:36.095Z,73.04
2019-05-19T05:44:05.194Z,72.85
2019-05-19T05:46:33.895Z,71.44
2019-05-19T05:49:02.626Z,69.02
2019-05-19T05:51:31.546Z,69.42
2019-05-19T05:54:00.924Z,67.30
2019-05-19T05:56:29.907Z,67.59
2019-05-19T05:58:58.610Z,68.14
2019-05-19T06:01:27.303Z,66.10
2019-05-19T06:03:56.250Z,65.83
2019-05-19T06:06:25.411Z,65.31
2019-05-19T06:08:54.357Z,65.34
2019-05-19T06:11:23.289Z,66.11
2019-05-19T06:13:52.155Z,65.59
2019-05-19T06:16:20.851Z,66.54
2019-05-19T06:18:50.128Z,64.33
2019-05-19T06:21:18.999Z,65.43
2019-05-19T06:23:47.660Z,65.54
2019-05-19T06:26:16.379Z,63.65
2019-05-19T06:28:45.642Z,64.05
2019-05-19T06:31:14.421Z,64.17
2019-05-19T06:33:43.639Z,62.88
2019-05-19T06:36:12.318Z,62.88
2019-05-19T06:38:41.018Z,63.76
2019-05-19T06:41:11.817Z,63.17
2019-05-19T06:43:40.771Z,62.81
2019-05-19T06:46:09.987Z,63.47
2019-05-19T06:48:38.953Z,61.72
2019-05-19T06:51:07.651Z,62.28
2019-05-19T06:53:36.828Z,63.36
2019-05-19T06:56:05.618Z,62.12
2019-05-19T06:58:34.369Z,61.29
2019-05-19T07:01:03.315Z,62.24
2019-05-19T07:03:32.004Z,62.66
2019-05-19T07:06:00.965Z,62.82
2019-05-19T07:08:29.729Z,62.33
2019-05-19T07:10:58.699Z,63.24
2019-05-19T07:13:27.641Z,61.81
2019-05-19T07:15:56.347Z,62.83
2019-05-19T07:18:25.263Z,62.55
2019-05-19T07:20:54.034Z,62.06
2019-05-19T07:23:28.225Z,62.51
2019-05-19T07:25:53.478Z,61.81
2019-05-19T07:28:22.407Z,61.96
2019-05-19T07:30:51.118Z,62.29
2019-05-19T07:33:20.283Z,61.82
2019-05-19T07:35:49.230Z,62.09
2019-05-19T07:38:17.940Z,62.45
2019-05-19T07:40:46.651Z,62.69
2019-05-19T07:43:15.598Z,62.56
2019-05-19T07:45:44.544Z,61.62
2019-05-19T07:48:13.238Z,60.88
2019-05-19T07:50:42.187Z,61.98
2019-05-19T07:53:13.400Z,61.00
2019-05-19T07:55:42.325Z,60.13
2019-05-19T07:58:11.272Z,58.98
2019-05-19T08:00:40.244Z,60.54
2019-05-19T08:03:09.180Z,59.09
2019-05-19T08:05:37.894Z,59.67
2019-05-19T08:08:09.900Z,57.15
2019-05-19T08:10:38.896Z,56.07
2019-05-19T08:13:07.584Z,57.04
2019-05-19T08:15:36.294Z,55.73
2019-05-19T08:18:05.207Z,56.15
2019-05-19T08:20:33.894Z,56.93
2019-05-19T08:23:02.665Z,56.16
2019-05-19T08:25:31.382Z,56.44
2019-05-19T08:28:08.581Z,56.27
2019-05-19T08:30:30.547Z,54.80
2019-05-19T08:32:59.427Z,58.37
2019-05-19T08:35:28.723Z,55.14
2019-05-19T08:37:57.449Z,53.13
2019-05-19T08:40:26.137Z,53.43
2019-05-19T08:42:54.849Z,53.97
2019-05-19T08:45:23.627Z,53.19
2019-05-19T08:47:52.383Z,56.73
2019-05-19T08:50:21.335Z,52.81
2019-05-19T08:52:50.023Z,54.02
2019-05-19T08:55:18.794Z,51.14
2019-05-19T08:57:48.286Z,51.16
2019-05-19T09:00:17.166Z,54.78
2019-05-19T09:02:46.121Z,50.57
2019-05-19T09:05:15.133Z,52.57
2019-05-19T09:07:43.820Z,50.75
2019-05-19T09:10:13.334Z,51.30
2019-05-19T09:12:42.013Z,52.83
2019-05-19T09:15:11.102Z,49.48
2019-05-19T09:17:39.968Z,50.82
2019-05-19T09:20:09.034Z,49.41
2019-05-19T09:22:37.874Z,51.71
2019-05-19T09:25:07.089Z,51.18
2019-05-19T09:27:35.844Z,55.01
2019-05-19T09:30:05.368Z,47.15
2019-05-19T09:32:34.541Z,48.90
2019-05-19T09:35:03.317Z,50.17
2019-05-19T09:37:32.005Z,49.36
2019-05-19T09:40:00.731Z,48.80
2019-05-19T09:42:29.572Z,48.35
2019-05-19T09:44:58.413Z,49.52
2019-05-19T09:47:27.198Z,48.60
2019-05-19T09:49:58.050Z,46.51
2019-05-19T09:52:26.882Z,47.28
2019-05-19T09:54:55.572Z,47.50
2019-05-19T09:57:24.745Z,47.61
2019-05-19T09:59:54.699Z,47.21
2019-05-19T10:02:23.405Z,48.15
2019-05-19T10:04:52.416Z,45.90
2019-05-19T10:07:21.365Z,45.78
2019-05-19T10:10:02.229Z,45.22
2019-05-19T10:12:31.383Z,47.04
2019-05-19T10:15:01.789Z,47.14
2019-05-19T10:17:31.615Z,47.40
2019-05-19T10:20:00.306Z,44.20
2019-05-19T10:22:29.156Z,48.53
2019-05-19T10:25:18.634Z,44.30
2019-05-19T10:27:28.337Z,47.22
2019-05-19T10:29:57.152Z,45.06
2019-05-19T10:32:25.845Z,44.02
2019-05-19T10:34:54.724Z,40.20
2019-05-19T10:37:23.762Z,41.47
2019-05-19T10:39:52.478Z,46.83
2019-05-19T10:42:21.256Z,42.45
2019-05-19T10:44:49.981Z,40.92
2019-05-19T10:47:18.784Z,43.95
2019-05-19T10:49:47.957Z,41.45
2019-05-19T10:52:16.912Z,43.77
2019-05-19T10:54:45.624Z,45.44
2019-05-19T10:57:14.553Z,48.47
2019-05-19T10:59:43.510Z,44.16
2019-05-19T11:02:12.282Z,43.32
2019-05-19T11:04:41.264Z,44.82
2019-05-19T11:07:10.059Z,45.05
2019-05-19T11:09:38.991Z,43.31
2019-05-19T11:12:07.707Z,42.03
2019-05-19T11:14:36.466Z,43.81
2019-05-19T11:17:05.169Z,42.54
2019-05-19T11:19:34.384Z,44.37
2019-05-19T11:22:03.623Z,42.98
2019-05-19T11:24:33.841Z,45.66
2019-05-19T11:27:02.563Z,49.17
2019-05-19T11:29:31.545Z,41.76
2019-05-19T11:32:00.516Z,40.84
2019-05-19T11:34:29.277Z,43.28
2019-05-19T11:36:59.911Z,43.76
2019-05-19T11:39:28.876Z,41.91
2019-05-19T11:41:57.906Z,43.99
2019-05-19T11:44:26.635Z,38.58
2019-05-19T11:46:55.579Z,41.67
2019-05-19T11:49:24.382Z,43.36
2019-05-19T11:51:53.128Z,40.92
2019-05-19T11:54:22.106Z,38.75
2019-05-19T11:56:51.059Z,41.41
2019-05-19T11:59:20.037Z,38.86
2019-05-19T12:01:49.243Z,41.04
2019-05-19T12:04:18.317Z,40.95
2019-05-19T12:06:47.432Z,42.08
2019-05-19T12:09:16.939Z,43.30
2019-05-19T12:11:45.648Z,39.41
2019-05-19T12:14:14.419Z,37.73
2019-05-19T12:16:43.406Z,38.01
2019-05-19T12:19:12.264Z,41.26
2019-05-19T12:21:41.432Z,39.19
2019-05-19T12:24:10.410Z,37.96
2019-05-19T12:26:39.126Z,36.35
2019-05-19T12:29:08.106Z,37.42
2019-05-19T12:31:37.047Z,36.74
2019-05-19T12:34:06.237Z,35.16
2019-05-19T12:36:35.447Z,35.70
2019-05-19T12:39:05.362Z,35.63
2019-05-19T12:41:34.308Z,36.57
2019-05-19T12:44:03.328Z,33.15
2019-05-19T12:46:32.076Z,38.15
2019-05-19T12:49:00.825Z,38.61
2019-05-19T12:51:29.866Z,36.67
2019-05-19T12:53:59.356Z,34.38
2019-05-19T12:56:39.256Z,36.64
2019-05-19T12:58:58.648Z,37.41
2019-05-19T13:01:27.773Z,37.34
2019-05-19T13:03:56.820Z,37.49
2019-05-19T13:06:26.316Z,39.52
2019-05-19T13:08:55.300Z,39.31
2019-05-19T13:11:24.371Z,37.77
2019-05-19T13:13:53.121Z,39.52
2019-05-19T13:16:22.085Z,38.83
2019-05-19T13:18:50.894Z,40.67
2019-05-19T13:21:19.857Z,40.17
2019-05-19T13:23:48.644Z,39.67
2019-05-19T13:26:17.337Z,42.88
2019-05-19T13:28:46.426Z,38.60
2019-05-19T13:31:15.195Z,38.66
2019-05-19T13:33:43.921Z,34.00
2019-05-19T13:36:13.193Z,37.07
2019-05-19T13:38:42.272Z,32.31
2019-05-19T13:41:11.049Z,36.45
2019-05-19T13:43:39.783Z,33.77
2019-05-19T13:46:08.534Z,33.69
2019-05-19T13:48:37.532Z,33.87
2019-05-19T13:51:06.478Z,32.31
2019-05-19T13:53:35.210Z,30.55
2019-05-19T13:56:04.160Z,32.51
2019-05-19T13:58:33.163Z,30.76
2019-05-19T14:01:01.931Z,32.55
2019-05-19T14:03:31.150Z,36.53
2019-05-19T14:05:59.850Z,33.40
2019-05-19T14:08:29.062Z,34.51
2019-05-19T14:10:58.098Z,34.96
2019-05-19T14:13:27.089Z,34.63
2019-05-19T14:15:55.784Z,35.75
2019-05-19T14:18:24.799Z,33.49
2019-05-19T14:20:53.609Z,32.44
2019-05-19T14:23:22.349Z,35.65
2019-05-19T14:25:51.041Z,34.31
2019-05-19T14:28:20.014Z,36.07
2019-05-19T14:30:48.694Z,37.71
2019-05-19T14:33:17.432Z,32.94
2019-05-19T14:35:47.387Z,30.02
2019-05-19T14:38:16.324Z,30.39
2019-05-19T14:40:45.412Z,31.60
2019-05-19T14:43:14.271Z,33.58
2019-05-19T14:45:43.243Z,31.77
2019-05-19T14:48:12.122Z,36.77
2019-05-19T14:50:41.020Z,34.68
2019-05-19T14:53:09.731Z,35.85
2019-05-19T14:55:38.555Z,32.15
2019-05-19T14:58:10.313Z,36.07
2019-05-19T15:00:39.056Z,34.51
2019-05-19T15:03:07.888Z,34.33
2019-05-19T15:05:36.625Z,34.58
2019-05-19T15:08:05.361Z,33.87
2019-05-19T15:10:34.137Z,37.87
2019-05-19T15:13:02.821Z,36.74
2019-05-19T15:15:31.791Z,37.31
2019-05-19T15:18:02.940Z,36.61
2019-05-19T15:20:31.686Z,34.33
2019-05-19T15:23:00.405Z,35.90
2019-05-19T15:25:29.124Z,36.18
2019-05-19T15:28:00.808Z,35.45
2019-05-19T15:30:28.267Z,36.57
2019-05-19T15:32:57.042Z,39.07
2019-05-19T15:35:26.028Z,36.83
2019-05-19T15:37:54.724Z,35.04
2019-05-19T15:40:23.800Z,34.48
2019-05-19T15:42:52.542Z,35.78
2019-05-19T15:45:21.844Z,38.17
2019-05-19T15:47:51.420Z,37.66
2019-05-19T15:50:20.788Z,39.54
2019-05-19T15:52:49.640Z,39.07
2019-05-19T15:55:18.433Z,37.19
2019-05-19T15:57:47.405Z,37.98
2019-05-19T16:00:16.496Z,37.87
2019-05-19T16:02:45.464Z,37.59
2019-05-19T16:05:14.726Z,42.79
2019-05-19T16:07:43.438Z,38.99
2019-05-19T16:10:13.541Z,38.47
2019-05-19T16:12:42.477Z,39.69
2019-05-19T16:15:11.852Z,38.67
2019-05-19T16:17:40.768Z,36.26
2019-05-19T16:20:09.751Z,38.09
2019-05-19T16:22:38.500Z,38.13
2019-05-19T16:25:07.371Z,36.48
2019-05-19T16:27:36.384Z,37.52
2019-05-19T16:30:06.045Z,36.83
2019-05-19T16:32:34.759Z,35.95
2019-05-19T16:35:03.467Z,35.76
2019-05-19T16:37:32.488Z,34.87
2019-05-19T16:40:01.439Z,37.06
2019-05-19T16:42:30.102Z,38.01
2019-05-19T16:44:59.068Z,42.94
2019-05-19T16:47:27.778Z,39.35
2019-05-19T16:49:56.751Z,38.62
2019-05-19T16:52:25.701Z,38.32
2019-05-19T16:55:13.626Z,38.84
2019-05-19T16:57:42.545Z,39.14
2019-05-19T17:00:11.780Z,41.57
2019-05-19T17:02:40.458Z,41.93
2019-05-19T17:05:09.610Z,42.55
2019-05-19T17:07:38.300Z,41.96
2019-05-19T17:10:08.897Z,41.83
2019-05-19T17:12:37.730Z,43.34
2019-05-19T17:15:07.023Z,42.23
2019-05-19T17:17:37.466Z,43.41
2019-05-19T17:20:06.694Z,42.22
2019-05-19T17:22:35.452Z,44.01
2019-05-19T17:25:04.317Z,43.97
2019-05-19T17:27:33.511Z,44.80
2019-05-19T17:30:02.209Z,43.37
2019-05-19T17:32:31.202Z,44.01
2019-05-19T17:35:01.019Z,44.76
2019-05-19T17:37:29.782Z,44.92
2019-05-19T17:39:58.774Z,45.33
2019-05-19T17:42:27.767Z,45.98
2019-05-19T17:44:56.533Z,46.91
2019-05-19T17:47:25.262Z,46.24
2019-05-19T17:49:54.340Z,46.88
2019-05-19T17:52:23.149Z,47.13
2019-05-19T17:54:52.139Z,47.07
2019-05-19T17:57:21.362Z,47.99
2019-05-19T17:59:51.728Z,47.27
2019-05-19T18:02:20.527Z,47.27
2019-05-19T18:04:49.563Z,48.01
2019-05-19T18:07:18.292Z,48.67
2019-05-19T18:09:46.994Z,49.40
2019-05-19T18:12:15.950Z,48.20
2019-05-19T18:14:44.660Z,49.56
2019-05-19T18:17:13.909Z,48.92
2019-05-19T18:19:42.638Z,48.76
2019-05-19T18:22:13.473Z,49.29
2019-05-19T18:24:42.501Z,52.76
2019-05-19T18:27:11.206Z,52.76
2019-05-19T18:29:40.202Z,53.13
2019-05-19T18:32:09.403Z,53.62
2019-05-19T18:34:38.342Z,52.91
2019-05-19T18:37:07.586Z,53.00
2019-05-19T18:39:39.520Z,53.46
2019-05-19T18:42:08.341Z,53.34
2019-05-19T18:44:39.401Z,53.85
2019-05-19T18:47:08.370Z,53.41
2019-05-19T18:49:37.412Z,52.76
2019-05-19T18:52:06.198Z,52.08
2019-05-19T18:54:34.890Z,51.22
2019-05-19T18:57:03.758Z,51.33
2019-05-19T18:59:46.483Z,51.24
2019-05-19T19:02:03.261Z,51.60
2019-05-19T19:04:32.141Z,51.86
2019-05-19T19:07:01.074Z,51.75
2019-05-19T19:09:30.278Z,52.24
2019-05-19T19:11:59.007Z,52.52
2019-05-19T19:14:28.332Z,52.46
2019-05-19T19:16:57.026Z,52.42
2019-05-19T19:19:25.970Z,52.16
2019-05-19T19:21:54.657Z,52.49
2019-05-19T19:24:23.332Z,52.30
2019-05-19T19:26:52.412Z,52.87
2019-05-19T19:29:21.348Z,52.99
2019-05-19T19:31:50.284Z,53.16
2019-05-19T19:34:18.992Z,53.49
2019-05-19T19:36:47.922Z,53.93
2019-05-19T19:39:16.856Z,54.40
2019-05-19T19:41:45.579Z,54.58
2019-05-19T19:44:14.613Z,54.95
2019-05-19T19:46:44.576Z,54.72
2019-05-19T19:49:13.204Z,55.14
2019-05-19T19:51:41.923Z,55.45
2019-05-19T19:54:10.652Z,55.15
2019-05-19T19:56:39.574Z,55.22
2019-05-19T19:59:08.316Z,55.17
2019-05-19T20:01:37.520Z,55.44
2019-05-19T20:04:06.491Z,54.87
2019-05-19T20:06:35.260Z,55.08
2019-05-19T20:09:04.663Z,54.96
2019-05-19T20:11:33.367Z,54.98
2019-05-19T20:14:02.468Z,55.11
2019-05-19T20:16:31.424Z,55.45
2019-05-19T20:19:00.326Z,55.53
2019-05-19T20:21:28.995Z,55.70
2019-05-19T20:23:57.744Z,56.29
2019-05-19T20:26:26.415Z,57.03
2019-05-19T20:28:55.117Z,56.89
2019-05-19T20:31:24.124Z,56.50
2019-05-19T20:33:52.804Z,56.13
2019-05-19T20:36:21.881Z,56.40
2019-05-19T20:38:51.736Z,56.02
2019-05-19T20:41:20.655Z,55.53
2019-05-19T20:43:49.360Z,55.63
2019-05-19T20:46:18.528Z,54.97
2019-05-19T20:48:47.480Z,55.00
2019-05-19T20:51:16.582Z,54.91
2019-05-19T20:53:48.049Z,54.99
2019-05-19T20:56:19.744Z,55.35
2019-05-19T20:58:48.678Z,55.51
2019-05-19T21:01:17.531Z,55.44
2019-05-19T21:03:46.702Z,55.87
2019-05-19T21:06:15.925Z,55.44
2019-05-19T21:08:44.876Z,55.94
2019-05-19T21:11:14.033Z,56.44
2019-05-19T21:13:43.208Z,56.38
2019-05-19T21:16:11.901Z,56.29
2019-05-19T21:18:40.688Z,56.64
2019-05-19T21:21:09.377Z,57.00
2019-05-19T21:23:39.604Z,57.47
2019-05-19T21:26:08.299Z,57.29
2019-05-19T21:28:37.556Z,57.79
2019-05-19T21:31:06.642Z,58.21
2019-05-19T21:33:35.281Z,57.62
2019-05-19T21:36:04.221Z,57.19
2019-05-19T21:38:32.952Z,57.16
2019-05-19T21:41:01.638Z,58.53
2019-05-19T21:43:30.688Z,59.32
2019-05-19T21:45:59.353Z,59.69
2019-05-19T21:48:36.453Z,59.96
2019-05-19T21:51:05.305Z,59.56
2019-05-19T21:53:34.541Z,60.40
2019-05-19T21:56:05.566Z,60.80
2019-05-19T21:58:37.628Z,60.67
2019-05-19T22:01:21.861Z,61.08
2019-05-19T22:03:38.804Z,61.10
2019-05-19T22:06:09.265Z,60.60
2019-05-19T22:08:38.235Z,60.36
2019-05-19T22:11:06.915Z,60.61
2019-05-19T22:13:35.961Z,60.72
2019-05-19T22:16:12.762Z,60.37
2019-05-19T22:18:35.600Z,60.22
2019-05-19T22:21:04.369Z,60.80
2019-05-19T22:23:33.621Z,61.33
2019-05-19T22:26:02.535Z,61.73
2019-05-19T22:28:31.455Z,61.86
2019-05-19T22:31:00.223Z,61.47
2019-05-19T22:33:29.193Z,61.51
2019-05-19T22:35:57.871Z,61.86
2019-05-19T22:38:26.817Z,61.96
2019-05-19T22:40:55.543Z,62.48
2019-05-19T22:43:24.600Z,62.49
2019-05-19T22:45:53.313Z,62.44
2019-05-19T22:48:22.011Z,62.26
2019-05-19T22:50:50.716Z,62.17
2019-05-19T22:53:24.298Z,62.40
2019-05-19T22:55:53.098Z,62.58
2019-05-19T22:58:21.818Z,62.87
2019-05-19T23:00:50.506Z,63.04
2019-05-19T23:03:19.264Z,63.25
2019-05-19T23:05:48.031Z,63.68
2019-05-19T23:08:16.696Z,63.73
2019-05-19T23:10:45.547Z,63.64
2019-05-19T23:13:16.587Z,63.47
2019-05-19T23:15:45.544Z,63.62
2019-05-19T23:18:14.561Z,63.62
2019-05-19T23:20:43.537Z,64.23
2019-05-19T23:23:12.542Z,64.52
2019-05-19T23:25:44.679Z,64.89
2019-05-19T23:28:13.665Z,65.74
2019-05-19T23:30:42.380Z,65.96
2019-05-19T23:33:11.170Z,66.11
2019-05-19T23:35:40.294Z,66.23
2019-05-19T23:38:09.310Z,66.28
2019-05-19T23:40:38.340Z,66.32
2019-05-19T23:43:07.025Z,66.65
2019-05-19T23:45:35.759Z,66.77
2019-05-19T23:48:04.705Z,67.46
2019-05-19T23:50:33.934Z,67.49
2019-05-19T23:53:02.893Z,67.68
2019-05-19T23:55:31.613Z,67.76
2019-05-19T23:58:00.544Z,67.48
